Milwaukee, Wisconsin
Current Conditions -  °F | °C
As of 12:52 AM on Saturday 25 Oct 2014 (Local Time) from KMKE Reporting Station
Few Clouds Few Clouds  
Wind Chill: 55°   Ceiling: Unl
Heat Index: 55°   Visibility: 10mi
Dew Point: 48°   Wind: 8mph
Humidity: 77%   Direction: 220°SW
Pressure: 29.88"   Gusts: NA
Location:  43.04°N, 87.91°W
Report Text: KMKE 250552Z 22007KT 10SM FEW048 13/09 A2988 RMK AO2 SLP118 60000 T01280089 10139 20117 401670100 58015
Loading
Personal Weather Stations






























Interactive Weather Map
Tropical Storm Tracking
New forecast layout! Learn more

10-Day Weather Forecast

Advertisements
Track Severe Weather on mobile